• Join FlightAware (Why Join?)
  • Login
  • US Flag 
11:00AM EDT


 

Airport Tracker/Info


-or-


 

Live Flight TrackerFlight Track Log ✈ N70MN ✈ 22-Jul-2013 ✈ KSTP - KFFM

Flight Track Log - Related Links

Times and Time Zones

All times are in EDT time to prevent confusion due to time zone crossing. See the N70MN flight status page for this flight to view local times or setup timezone preferences in your user account.

Time Position Orientation Groundspeed Altitude Reporting Facility
EDT Latitude Longitude Course Direction KTS MPH feet Rate Location/Type
09:41AM 44.9167 -93.0167 North 163 188 2,000  Level Minneapolis TRACON
09:43AM 44.9647 -93.1247 302° West  Level FlightAware Approximate
09:44AM 45.0139 -93.0089 302° West 139 160 7,400  Level Minneapolis Center
09:45AM 45.0431 -93.0492 316° Northwest 150 173 9,400 1,200 Climbing Minneapolis Center
09:46AM 45.0806 -93.1222 306° West 205 236 9,900 240 Climbing Minneapolis Center
09:47AM 45.1153 -93.1942 304° West 222 255 9,900  Level Minneapolis Center
09:48AM 45.1514 -93.2647 306° West 223 257 9,900  Level Minneapolis Center
09:49AM 45.1883 -93.3317 308° West 217 250 9,900 60 Level Minneapolis Center
09:50AM 45.2239 -93.3953 308° West 208 239 10,100 720 Climbing Minneapolis Center
09:51AM 45.2478 -93.4572 299° West 182 209 11,500 840 Climbing Minneapolis Center
09:52AM 45.2881 -93.5247 310° West 198 228 11,900 600 Climbing Minneapolis Center
09:53AM 45.3172 -93.5931 301° West 202 232 12,800 1,140 Climbing Minneapolis Center
09:54AM 45.3397 -93.6542 298° West 177 204 14,300 1,320 Climbing Minneapolis Center
09:55AM 45.3581 -93.7153 293° West 170 196 15,600 720 Climbing Minneapolis Center
09:56AM 45.3714 -93.7850 285° West 182 209 15,900 120 Climbing Minneapolis Center
09:57AM 45.3894 -93.8647 288° West 210 242 15,900 480 Level Minneapolis Center
09:58AM 45.4211 -93.9439 300° West 190 219 16,900 480 Climbing Minneapolis Center
09:59AM 45.4600 -94.0056 312° West 205 236 16,900  Level Minneapolis Center
10:00AM 45.4997 -94.0681 312° West 213 245 16,900  Level Minneapolis Center
10:01AM 45.5247 -94.1456 295° West 215 247 16,900  Level Minneapolis Center
10:02AM 45.5467 -94.2047 298° West 213 245 16,900  Level Minneapolis Center
10:03AM 45.5811 -94.2950 299° West 214 246 16,900 -300 Level Minneapolis Center
10:04AM 45.6172 -94.3864 299° West 218 251 16,300 -540 Descending Minneapolis Center
10:05AM 45.6478 -94.4669 299° West 227 261 15,900 -240 Descending Minneapolis Center
10:06AM 45.6775 -94.5436 299° West 224 258 15,900  Level Minneapolis Center
10:07AM 45.7058 -94.6186 298° West 217 250 15,900 -180 Level Minneapolis Center
10:08AM 45.7344 -94.6928 299° West 215 247 15,600 -660 Descending Minneapolis Center
10:10AM 45.7728 -94.7889 300° West 228 262 14,500 -1,020 Descending Minneapolis Center
10:11AM 45.8106 -94.8861 299° West 233 268 13,400 -1,020 Descending Minneapolis Center
10:12AM 45.8394 -94.9647 298° West 227 261 12,400 -1,020 Descending Minneapolis Center
10:13AM 45.8692 -95.0458 298° West 221 254 11,400 -780 Descending Minneapolis Center
10:14AM 45.8925 -95.1072 299° West 220 253 10,800 -780 Descending Minneapolis Center
10:15AM 45.9294 -95.1939 302° West 216 249 9,900 -840 Descending Minneapolis Center
10:16AM 45.9706 -95.2569 313° West 215 247 9,100 -900 Descending Minneapolis Center
10:17AM 46.0161 -95.3356 310° West 214 246 8,100 -840 Descending Minneapolis Center
10:18AM 46.0481 -95.4100 302° West 217 250 7,400 -780 Descending Minneapolis Center
10:19AM 46.0706 -95.4906 292° West 217 250 6,500 -780 Descending Minneapolis Center
10:20AM 46.0964 -95.5683 296° West 217 250 5,800 -780 Descending Minneapolis Center
10:21AM 46.1206 -95.6469 294° West 217 250 4,900 -780 Descending Minneapolis Center
10:22AM 46.1394 -95.7311 288° West 214 246 4,300 -600 Descending Minneapolis Center